Time;durP1;ratioP1;P1;durP2;ratioP2;P2;SDS_P1;SDS_P2;PMS_P1;PMS_P2;Temp;Humidity;BMP_temperature;BMP_pressure;BME280_temperature;BME280_humidity;BME280_pressure;Samples;Min_cycle;Max_cycle;Signal;HPM_P1;HPM_P2
2022/05/07 00:00:41;;;;;;;18.33;16.47;;;18.10;92.90;;;18.22;46.51;101902.56;4934684;28;98787;-64
2022/05/07 00:03:07;;;;;;;15.37;13.90;;;18.00;93.80;;;18.11;47.09;101901.31;4917733;28;99303;-66
2022/05/07 00:05:33;;;;;;;10.13;9.13;;;17.80;94.30;;;18.08;46.79;101895.22;4913614;28;98195;-66
2022/05/07 00:07:59;;;;;;;6.90;6.20;;;17.70;94.00;;;18.08;46.75;101893.44;4930856;28;98795;-65
2022/05/07 00:10:25;;;;;;;6.83;6.23;;;17.80;93.30;;;18.13;46.67;101893.22;4915684;28;98305;-66
2022/05/07 00:12:51;;;;;;;14.57;12.57;;;17.90;93.00;;;18.13;46.57;101893.22;4934183;28;99549;-64
2022/05/07 00:15:17;;;;;;;6.53;5.93;;;17.90;93.70;;;18.13;46.61;101883.41;4929823;28;98021;-66
2022/05/07 00:20:28;;;;;;;6.20;5.60;;;18.00;93.00;;;18.22;46.55;101881.22;4931191;28;99658;-65
2022/05/07 00:22:57;;;;;;;6.60;6.00;;;18.10;92.80;;;18.27;46.47;101879.19;4935034;28;97801;-65
2022/05/07 00:25:24;;;;;;;6.53;6.03;;;18.10;92.60;;;18.34;46.04;101880.63;4916134;28;98685;-65
2022/05/07 00:27:50;;;;;;;6.83;6.23;;;18.30;92.40;;;18.41;45.75;101882.06;4933568;28;97891;-66
2022/05/07 00:30:16;;;;;;;6.23;5.73;;;18.40;92.20;;;18.45;45.83;101875.63;4931844;28;98074;-65
2022/05/07 00:32:42;;;;;;;6.47;5.87;;;18.40;92.10;;;18.49;45.92;101869.19;4929009;28;98934;-64
2022/05/07 00:35:10;;;;;;;6.67;6.07;;;18.50;91.90;;;18.55;45.56;101878.72;4932439;28;97906;-66
2022/05/07 00:37:37;;;;;;;7.00;6.30;;;18.50;92.20;;;18.56;45.49;101873.28;4916402;28;98513;-66
2022/05/07 00:40:04;;;;;;;7.33;6.70;;;18.60;91.90;;;18.56;45.84;101867.94;4937207;28;99871;-65
2022/05/07 00:42:30;;;;;;;6.47;5.87;;;18.50;91.90;;;18.49;45.53;101873.66;4930599;28;99852;-65
2022/05/07 00:44:56;;;;;;;6.73;6.13;;;18.40;92.20;;;18.50;45.72;101870.91;4938675;28;99659;-65
2022/05/07 00:47:24;;;;;;;6.43;5.87;;;18.40;92.10;;;18.49;45.64;101869.19;4916251;28;98940;-64
2022/05/07 00:49:56;;;;;;;6.40;5.90;;;18.40;92.30;;;18.48;45.79;101877.28;4915476;28;97994;-66
2022/05/07 00:52:23;;;;;;;5.80;5.30;;;18.30;92.30;;;18.48;45.82;101871.94;4912872;28;98623;-64
2022/05/07 00:54:49;;;;;;;6.50;5.93;;;18.40;92.20;;;18.53;45.63;101872.59;4925312;28;97998;-65
2022/05/07 00:57:17;;;;;;;6.17;5.67;;;18.50;92.00;;;18.56;45.50;101865.28;4906515;28;98953;-65
2022/05/07 00:59:43;;;;;;;6.50;5.90;;;18.50;91.90;;;18.60;45.61;101860.63;4906354;28;99196;-64
2022/05/07 01:02:09;;;;;;;6.40;5.87;;;18.60;91.80;;;18.62;45.31;101864.94;4928071;28;98375;-66
2022/05/07 01:04:36;;;;;;;6.20;5.70;;;18.60;91.70;;;18.65;45.25;101859.47;4934513;28;99701;-65
2022/05/07 01:07:03;;;;;;;6.20;5.70;;;18.60;91.60;;;18.64;45.50;101863.09;4929862;28;98258;-65
2022/05/07 01:09:30;;;;;;;6.57;6.00;;;18.60;91.60;;;18.65;45.60;101853.28;4941554;22;99229;-71
2022/05/07 01:11:57;;;;;;;6.63;6.03;;;18.60;91.60;;;18.64;45.57;101862.22;4936919;28;97643;-71
2022/05/07 01:14:22;;;;;;;6.17;5.63;;;18.60;91.70;;;18.63;45.36;101856.03;4931826;28;105066;-71
2022/05/07 01:16:48;;;;;;;6.07;5.57;;;18.60;91.70;;;18.60;45.42;101861.50;4922188;28;99945;-71
2022/05/07 01:19:14;;;;;;;6.50;5.90;;;18.60;91.80;;;18.58;45.47;101847.34;4931448;28;116529;-72
2022/05/07 01:21:40;;;;;;;6.30;5.70;;;18.50;91.90;;;18.57;45.44;101850.09;4919347;28;97904;-71
2022/05/07 01:24:07;;;;;;;6.60;6.10;;;18.50;92.00;;;18.54;45.78;101850.25;4937133;28;97441;-71
2022/05/07 01:26:33;;;;;;;6.80;6.20;;;18.40;92.00;;;18.52;45.62;101849.47;4929827;28;102141;-72
2022/05/07 01:29:03;;;;;;;7.23;6.53;;;18.40;92.10;;;18.49;45.70;101847.81;4919923;28;110297;-71
2022/05/07 01:31:29;;;;;;;6.97;6.37;;;18.40;92.10;;;18.48;45.79;101845.22;4939701;28;102916;-71
2022/05/07 01:33:55;;;;;;;6.13;5.60;;;18.40;92.10;;;18.48;45.81;101848.75;4916963;28;97231;-71
2022/05/07 01:36:21;;;;;;;6.00;5.50;;;18.40;92.10;;;18.47;45.62;101847.00;4914482;28;115238;-72
2022/05/07 01:38:51;;;;;;;8.00;7.30;;;18.40;92.10;;;18.45;45.66;101846.22;4931873;28;101317;-71
2022/05/07 01:41:17;;;;;;;7.07;6.47;;;18.30;92.00;;;18.43;45.96;101842.78;4914089;28;98155;-71
2022/05/07 01:43:43;;;;;;;7.87;7.17;;;18.30;92.20;;;18.40;45.83;101842.94;4932588;28;107400;-71
2022/05/07 01:48:09;;;;;;;7.70;6.90;;;18.30;92.30;;;18.35;45.98;101836.94;4932011;28;119501;-73
2022/05/07 01:48:54;;;;;;;8.73;7.87;;;18.20;92.40;;;18.29;46.25;101855.94;4921314;28;97036;-71
2022/05/07 01:51:20;;;;;;;7.60;6.80;;;18.00;92.70;;;18.23;46.21;101853.59;4913131;28;126900;-73
2022/05/07 01:53:47;;;;;;;7.43;6.73;;;17.90;93.00;;;18.17;46.44;101851.19;4932085;28;116645;-73
2022/05/07 01:56:13;;;;;;;6.93;6.33;;;17.80;93.10;;;18.13;46.70;101850.50;4912172;28;98014;-73
2022/05/07 01:58:39;;;;;;;6.87;6.27;;;17.80;93.30;;;18.11;46.69;101847.91;4927348;28;122852;-73
2022/05/07 02:01:05;;;;;;;6.77;6.07;;;17.80;93.20;;;18.10;46.84;101850.66;4928005;28;116797;-73
2022/05/07 02:03:31;;;;;;;7.23;6.53;;;17.80;93.20;;;18.10;46.68;101851.50;4927714;28;98291;-73
2022/05/07 02:05:56;;;;;;;6.40;5.87;;;17.80;93.30;;;18.12;46.56;101851.44;4929645;28;97877;-73
2022/05/07 02:08:22;;;;;;;7.57;6.30;;;17.90;93.10;;;18.17;46.42;101845.84;4924208;28;118258;-73
2022/05/07 02:10:48;;;;;;;6.03;5.53;;;17.90;92.90;;;18.20;46.45;101843.91;4928334;28;98721;-73
2022/05/07 02:13:14;;;;;;;6.53;5.93;;;18.00;92.80;;;18.25;46.57;101838.34;4924750;28;114901;-73
2022/05/07 02:15:39;;;;;;;7.13;6.53;;;18.10;92.60;;;18.26;46.19;101845.41;4912923;28;97963;-71
2022/05/07 02:18:07;;;;;;;6.53;6.00;;;18.10;92.60;;;18.26;46.34;101837.41;4910479;28;98279;-73
2022/05/07 02:20:33;;;;;;;6.47;5.93;;;18.10;92.60;;;18.27;46.44;101847.16;4926894;28;104613;-71
2022/05/07 02:22:59;;;;;;;7.00;6.40;;;18.10;92.60;;;18.25;46.16;101847.22;4941518;28;98438;-71
2022/05/07 02:25:25;;;;;;;6.50;5.90;;;18.10;92.60;;;18.24;46.37;101847.31;4934035;28;97772;-71
2022/05/07 02:27:52;;;;;;;6.80;6.20;;;18.10;92.70;;;18.22;46.26;101839.34;4940703;28;97921;-71
2022/05/07 02:30:19;;;;;;;6.30;5.80;;;18.00;92.70;;;18.23;46.39;101845.56;4922363;28;99062;-71
2022/05/07 02:32:48;;;;;;;6.77;6.17;;;18.10;92.70;;;18.25;46.21;101846.38;4938369;28;97586;-71
2022/05/07 02:35:14;;;;;;;6.53;5.93;;;18.10;92.60;;;18.27;46.35;101847.16;4914693;28;112175;-71
2022/05/07 02:37:40;;;;;;;6.30;5.80;;;18.10;92.50;;;18.29;46.23;101839.91;4921079;28;98579;-71
2022/05/07 02:40:06;;;;;;;6.37;5.87;;;18.20;92.40;;;18.31;46.02;101843.38;4938213;28;97040;-71
2022/05/07 02:42:36;;;;;;;7.03;6.43;;;18.20;92.40;;;18.31;46.24;101836.22;4940439;28;97564;-71
2022/05/07 02:45:05;;;;;;;7.77;7.07;;;18.20;92.30;;;18.31;46.27;101840.72;4944703;28;96940;-71
2022/05/07 02:47:31;;;;;;;7.07;6.47;;;18.20;92.20;;;18.26;46.18;101842.75;4954029;28;97803;-71
2022/05/07 02:49:57;;;;;;;7.33;6.73;;;18.10;92.60;;;18.22;46.50;101849.16;4935247;28;96819;-71
2022/05/07 02:52:23;;;;;;;11.47;10.43;;;18.00;92.60;;;18.14;46.58;101842.41;4944289;28;98758;-71
2022/05/07 02:54:49;;;;;;;7.27;6.57;;;17.90;92.90;;;18.05;46.50;101853.50;4966719;28;101848;-71
2022/05/07 02:57:15;;;;;;;13.13;11.83;;;17.70;93.20;;;18.00;46.57;101850.22;4941958;28;97840;-71
2022/05/07 02:59:41;;;;;;;6.67;6.10;;;17.60;93.20;;;17.92;47.13;101855.03;4956923;28;97526;-71
2022/05/07 03:02:07;;;;;;;6.50;6.00;;;17.50;93.70;;;17.91;46.99;101850.63;4944597;28;96774;-71
2022/05/07 03:04:34;;;;;;;7.33;6.63;;;17.50;93.70;;;17.88;47.10;101848.13;4949347;28;119035;-71
2022/05/07 03:07:00;;;;;;;6.80;6.20;;;17.50;93.60;;;17.88;47.10;101849.91;4938338;28;97477;-71
2022/05/07 03:09:26;;;;;;;7.23;6.63;;;17.60;93.60;;;17.88;47.07;101848.13;4950006;28;97127;-71
2022/05/07 03:11:52;;;;;;;6.67;6.07;;;17.60;93.60;;;17.90;47.14;101848.91;4955930;28;96898;-71
2022/05/07 03:14:18;;;;;;;6.80;6.20;;;17.60;93.40;;;17.91;47.14;101852.44;4941046;28;96858;-71
2022/05/07 03:16:44;;;;;;;5.93;5.50;;;17.60;93.80;;;17.92;46.96;101847.03;4964627;28;117438;-71
2022/05/07 03:19:10;;;;;;;6.60;6.03;;;17.70;93.40;;;17.96;46.98;101845.97;4956922;28;96954;-72
2022/05/07 03:21:36;;;;;;;6.27;5.77;;;17.70;93.20;;;17.99;46.88;101843.13;4961185;28;96976;-71
2022/05/07 03:24:02;;;;;;;6.47;5.97;;;17.80;93.10;;;18.02;46.84;101843.00;4957914;28;96809;-71
2022/05/07 03:26:28;;;;;;;7.43;6.73;;;17.80;93.00;;;18.01;47.07;101841.25;4941336;28;98622;-71
2022/05/07 03:28:53;;;;;;;10.67;9.77;;;17.80;92.90;;;17.98;47.03;101846.75;4964504;28;108599;-71
2022/05/07 03:31:19;;;;;;;7.60;6.90;;;17.70;93.20;;;17.94;47.01;101846.94;4961096;28;96738;-71
2022/05/07 03:33:48;;;;;;;7.03;6.43;;;17.60;93.30;;;17.92;46.98;101841.69;4970039;28;97141;-71
2022/05/07 03:36:19;;;;;;;6.93;6.33;;;17.60;93.60;;;17.89;47.12;101844.50;4949549;28;96945;-71
2022/05/07 03:38:45;;;;;;;7.57;6.97;;;17.60;93.60;;;17.87;47.18;101849.06;4943220;28;96662;-71
2022/05/07 03:41:11;;;;;;;7.27;6.60;;;17.50;93.60;;;17.84;47.33;101849.22;4962712;28;96774;-72
2022/05/07 03:43:37;;;;;;;6.80;6.20;;;17.50;93.90;;;17.82;47.18;101845.75;4961163;28;117196;-71
2022/05/07 03:46:08;;;;;;;6.70;6.17;;;17.40;93.90;;;17.80;47.60;101847.63;4942945;28;97520;-71
2022/05/07 03:48:35;;;;;;;6.87;6.23;;;17.40;93.80;;;17.79;47.32;101836.09;4956646;28;102762;-71
2022/05/07 03:51:00;;;;;;;6.30;5.80;;;17.40;94.00;;;17.82;47.33;101841.28;4959865;28;97143;-71
2022/05/07 03:53:30;;;;;;;6.47;5.97;;;17.50;93.70;;;17.91;47.29;101842.63;4963148;28;110765;-71
2022/05/07 03:56:08;;;;;;;6.43;5.93;;;17.70;93.50;;;18.00;46.88;101844.00;4943005;28;97745;-71
2022/05/07 03:58:35;;;;;;;7.20;6.60;;;17.80;93.20;;;18.05;47.05;101847.31;4944836;28;99756;-71
2022/05/07 04:01:01;;;;;;;6.10;5.60;;;17.90;93.00;;;18.08;46.69;101842.72;4959532;28;96674;-71
2022/05/07 04:03:29;;;;;;;6.60;6.10;;;18.00;92.90;;;18.11;46.52;101842.56;4954279;28;97149;-71
2022/05/07 04:05:55;;;;;;;6.30;5.77;;;18.00;92.90;;;18.13;46.41;101845.16;4939919;28;99511;-71
2022/05/07 04:08:21;;;;;;;6.70;6.20;;;18.00;92.90;;;18.12;46.84;101849.63;4925989;28;96807;-71
2022/05/07 04:10:48;;;;;;;6.53;5.93;;;18.00;92.90;;;18.13;46.85;101846.00;4937210;28;97084;-70
2022/05/07 04:13:17;;;;;;;5.80;5.37;;;18.00;92.90;;;18.16;46.52;101844.13;4953454;28;117468;-71
2022/05/07 04:15:43;;;;;;;6.47;5.93;;;18.00;92.90;;;18.17;46.76;101841.38;4941835;28;97338;-71
2022/05/07 04:18:10;;;;;;;6.67;6.17;;;18.10;93.20;;;18.18;46.58;101844.91;4956500;28;120096;-73
2022/05/07 04:20:37;;;;;;;7.30;6.70;;;18.00;92.80;;;18.17;46.43;101851.19;4943185;28;96855;-71
2022/05/07 04:23:04;;;;;;;6.83;6.23;;;18.00;92.90;;;18.18;46.39;101844.91;4956973;28;102459;-71
2022/05/07 04:25:30;;;;;;;7.03;6.43;;;18.00;92.80;;;18.14;46.42;101849.53;4965205;28;97610;-71
2022/05/07 04:27:56;;;;;;;6.63;6.10;;;18.00;92.80;;;18.12;46.83;101852.28;4950079;28;129306;-71
2022/05/07 04:30:23;;;;;;;6.63;6.13;;;17.90;93.10;;;18.10;46.67;101851.50;4945787;28;97129;-72
2022/05/07 04:32:49;;;;;;;6.97;6.37;;;17.90;93.00;;;18.09;46.68;101849.78;4962211;28;96905;-72
2022/05/07 04:35:15;;;;;;;6.70;6.20;;;17.90;93.10;;;18.09;46.95;101856.94;4943319;28;97574;-71
2022/05/07 04:37:41;;;;;;;6.60;6.10;;;17.90;93.10;;;18.08;46.84;101847.16;4941750;28;97419;-72
2022/05/07 04:40:09;;;;;;;7.30;6.70;;;17.90;93.00;;;18.10;46.57;101855.97;4956802;28;122418;-71
2022/05/07 04:42:36;;;;;;;7.87;7.20;;;17.90;93.00;;;18.06;46.79;101854.38;4953929;28;96979;-71
2022/05/07 04:45:03;;;;;;;7.40;6.80;;;17.90;92.90;;;18.03;46.90;101854.53;4968012;28;97670;-71
2022/05/07 04:47:30;;;;;;;6.83;6.27;;;17.80;93.10;;;17.98;46.99;101854.75;4962224;28;98575;-71
2022/05/07 04:49:56;;;;;;;7.20;6.53;;;17.70;93.30;;;17.94;46.82;101855.84;4959637;28;97127;-71
2022/05/07 04:52:22;;;;;;;7.10;6.50;;;17.70;93.40;;;17.90;47.02;101854.25;4960087;28;97537;-71
2022/05/07 04:54:48;;;;;;;7.60;6.90;;;17.60;93.50;;;17.89;47.21;101860.53;4965576;28;97344;-71
2022/05/07 04:57:14;;;;;;;12.63;11.30;;;17.60;93.80;;;17.85;47.14;101861.63;4937740;28;100310;-71
2022/05/07 04:59:40;;;;;;;13.20;12.00;;;17.50;93.60;;;17.77;47.41;101858.44;4960512;28;96771;-71
2022/05/07 05:02:05;;;;;;;7.77;7.10;;;17.40;93.90;;;17.73;47.71;101859.50;4958235;28;109983;-71
2022/05/07 05:04:31;;;;;;;7.70;7.00;;;17.30;94.50;;;17.71;47.63;101869.41;4963245;28;125355;-71
2022/05/07 05:06:57;;;;;;;7.87;7.17;;;17.30;94.40;;;17.70;47.69;101870.34;4943743;28;126577;-71
2022/05/07 05:09:23;;;;;;;7.93;7.23;;;17.30;94.40;;;17.70;47.73;101873.00;4958232;28;97229;-71
2022/05/07 05:11:49;;;;;;;9.00;8.17;;;17.30;94.50;;;17.66;47.59;101866.91;4944569;28;105457;-71
2022/05/07 05:16:58;;;;;;;6.77;6.17;;;17.30;94.30;;;17.76;47.33;101867.38;4963094;28;100057;-71
2022/05/07 05:19:24;;;;;;;6.93;6.30;;;17.50;94.00;;;17.80;47.40;101871.66;4966576;28;113730;-71
2022/05/07 05:21:50;;;;;;;7.97;7.27;;;17.60;93.80;;;17.81;47.54;101870.72;4957427;28;123136;-71
2022/05/07 05:24:16;;;;;;;10.20;9.20;;;17.60;93.70;;;17.77;47.47;101866.44;4936137;28;97567;-71
2022/05/07 05:26:41;;;;;;;6.80;6.20;;;17.50;94.20;;;17.75;47.67;101870.97;4958111;28;97314;-71
2022/05/07 05:29:07;;;;;;;7.60;6.90;;;17.40;94.80;;;17.76;47.54;101872.72;4957867;28;112409;-71
2022/05/07 05:31:33;;;;;;;7.10;6.50;;;17.40;94.40;;;17.77;47.72;101879.78;4944125;28;115384;-71
2022/05/07 05:33:58;;;;;;;6.83;6.17;;;17.40;94.30;;;17.79;47.62;101872.56;4971359;28;97852;-71
2022/05/07 05:36:26;;;;;;;6.70;6.20;;;17.50;94.10;;;17.84;47.61;101870.56;4952158;28;97151;-71
2022/05/07 05:38:53;;;;;;;19.53;17.60;;;17.60;94.10;;;17.82;47.43;101877.78;4958105;28;97386;-71
2022/05/07 05:41:20;;;;;;;22.37;20.27;;;17.50;94.30;;;17.74;47.61;101883.47;4946952;28;97028;-72
2022/05/07 05:43:46;;;;;;;25.00;22.60;;;17.40;94.70;;;17.72;47.93;101892.47;4954826;28;99724;-71
2022/05/07 05:46:14;;;;;;;25.97;23.27;;;17.30;95.00;;;17.71;47.88;101899.63;4957085;28;98412;-72
2022/05/07 05:48:40;;;;;;;22.90;20.70;;;17.30;94.60;;;17.73;47.70;101897.75;4946018;28;96935;-71
2022/05/07 05:51:06;;;;;;;9.73;8.80;;;17.40;94.30;;;17.72;47.67;101893.34;4940805;28;97704;-71
2022/05/07 05:53:31;;;;;;;8.10;7.40;;;17.40;94.50;;;17.74;47.52;101890.59;4965041;28;103053;-71
2022/05/07 05:55:59;;;;;;;13.53;12.17;;;17.50;94.30;;;17.76;47.42;101897.59;4956319;28;96902;-71
2022/05/07 05:58:25;;;;;;;8.73;7.93;;;17.50;94.40;;;17.76;47.71;101894.06;4958718;28;96911;-71
2022/05/07 06:00:52;;;;;;;7.50;6.87;;;17.50;94.50;;;17.77;47.65;101901.13;4941014;28;110358;-71
2022/05/07 06:03:19;;;;;;;6.90;6.30;;;17.50;94.50;;;17.83;47.40;101896.38;4954087;28;99330;-72
2022/05/07 06:05:45;;;;;;;8.63;7.93;;;17.60;94.00;;;17.88;47.45;101890.81;4943060;28;97459;-72
2022/05/07 06:08:12;;;;;;;7.10;6.50;;;17.70;93.90;;;17.92;47.18;101897.75;4937301;28;119434;-72
2022/05/07 06:10:38;;;;;;;7.20;6.60;;;17.70;93.80;;;17.93;47.22;101896.81;4957848;28;97297;-72
2022/05/07 06:13:03;;;;;;;9.77;8.93;;;17.70;94.00;;;17.95;47.16;101907.44;4960327;28;97570;-71
2022/05/07 06:15:29;;;;;;;7.97;7.20;;;17.70;94.30;;;17.93;47.17;101907.47;4955083;28;126861;-71
2022/05/07 06:17:55;;;;;;;7.37;6.77;;;17.70;94.30;;;17.98;47.00;101900.16;4965328;28;117673;-71
2022/05/07 06:20:21;;;;;;;11.43;10.43;;;17.80;93.80;;;18.03;46.86;101898.13;4954532;28;96990;-71
2022/05/07 06:22:46;;;;;;;22.50;20.37;;;17.90;93.50;;;18.05;47.16;101909.59;4959440;28;121381;-71
2022/05/07 06:27:57;;;;;;;30.87;27.80;;;17.90;93.80;;;17.98;47.29;101900.16;4931997;28;96775;-71
2022/05/07 06:30:23;;;;;;;12.23;11.13;;;17.80;94.00;;;17.96;47.37;101904.69;4953498;28;97268;-71
2022/05/07 06:32:48;;;;;;;10.50;9.60;;;17.70;94.30;;;17.93;47.36;101907.47;4968712;28;107311;-71
2022/05/07 06:35:14;;;;;;;7.70;7.10;;;17.70;94.30;;;17.92;47.56;101904.88;4954140;28;122696;-72
2022/05/07 06:37:40;;;;;;;7.30;6.70;;;17.60;94.70;;;17.84;47.41;101902.59;4965330;28;96599;-71
2022/05/07 06:40:07;;;;;;;7.50;6.90;;;17.60;94.40;;;17.92;47.21;101911.09;4958797;28;96622;-71
2022/05/07 06:42:36;;;;;;;16.30;14.87;;;17.70;93.80;;;17.98;47.19;101907.28;4936452;28;102119;-71
2022/05/07 06:45:03;;;;;;;7.60;7.00;;;17.80;93.80;;;17.96;47.15;101912.69;4949112;28;96953;-71
2022/05/07 06:47:30;;;;;;;7.20;6.50;;;17.80;94.00;;;18.03;46.92;101906.13;4953613;28;97490;-71
2022/05/07 06:49:56;;;;;;;7.30;6.70;;;17.90;93.30;;;18.11;46.91;101906.63;4949019;28;96947;-71
2022/05/07 06:52:22;;;;;;;6.87;6.27;;;18.10;93.00;;;18.21;46.37;101906.19;4961431;28;119855;-71
2022/05/07 06:54:47;;;;;;;18.33;16.57;;;18.30;92.80;;;18.28;46.43;101907.63;4973696;28;122889;-71
2022/05/07 06:57:13;;;;;;;29.97;26.87;;;18.30;93.00;;;18.26;47.69;101901.50;4961272;28;116200;-71
2022/05/07 06:59:39;;;;;;;13.00;11.73;;;18.30;94.20;;;18.21;46.70;101912.38;4961101;28;98767;-71
2022/05/07 07:02:04;;;;;;;26.53;23.90;;;18.10;93.70;;;18.26;46.97;101906.84;4972526;28;96779;-71
2022/05/07 07:04:30;;;;;;;26.17;23.57;;;18.20;93.50;;;18.30;46.91;101905.75;4963654;28;117580;-71
2022/05/07 07:06:57;;;;;;;27.67;24.83;;;18.30;93.80;;;18.28;47.19;101904.97;4946516;28;97033;-71
2022/05/07 07:09:23;;;;;;;15.87;14.37;;;18.20;94.00;;;18.33;46.65;101909.13;4968436;28;97107;-71
2022/05/07 07:11:48;;;;;;;8.37;7.63;;;18.30;93.30;;;18.36;46.43;101908.13;4941753;28;126246;-71
2022/05/07 07:14:14;;;;;;;26.73;24.03;;;18.30;92.80;;;18.32;47.13;101910.06;4951160;28;97487;-71
2022/05/07 07:16:40;;;;;;;7.87;7.17;;;18.30;93.70;;;18.28;46.74;101907.63;4947105;28;96957;-71
2022/05/07 07:19:06;;;;;;;8.10;7.40;;;18.20;93.40;;;18.32;46.47;101915.41;4960551;28;96986;-71
2022/05/07 07:21:32;;;;;;;7.50;6.80;;;18.30;92.80;;;18.38;46.11;101914.28;4963207;28;120284;-71
2022/05/07 07:23:59;;;;;;;18.30;15.57;;;18.40;92.70;;;18.44;46.47;101904.16;4950717;28;98454;-71
2022/05/07 07:26:25;;;;;;;7.00;6.40;;;18.40;93.30;;;18.50;45.96;101902.97;4958255;28;97007;-71
2022/05/07 07:28:50;;;;;;;7.20;6.60;;;18.50;92.40;;;18.54;45.87;101901.91;4944525;28;97829;-71
2022/05/07 07:31:16;;;;;;;6.90;6.30;;;18.60;92.20;;;18.58;45.93;101900.78;4956920;28;116908;-72
2022/05/07 07:33:43;;;;;;;7.03;6.43;;;18.60;92.30;;;18.62;45.72;101897.03;4942247;28;97058;-71
2022/05/07 07:36:11;;;;;;;6.87;6.30;;;18.70;92.10;;;18.64;45.38;101905.84;4959559;28;96977;-73
2022/05/07 07:38:37;;;;;;;6.30;5.80;;;18.70;91.90;;;18.67;45.62;101905.72;4941152;28;98508;-71
2022/05/07 07:41:04;;;;;;;26.70;23.97;;;18.80;91.90;;;18.71;46.48;101901.94;4955167;28;97864;-71
2022/05/07 07:43:30;;;;;;;28.70;25.53;;;18.70;93.00;;;18.66;47.92;101895.97;4937817;28;97410;-72
2022/05/07 07:48:41;;;;;;;21.47;19.23;;;18.60;92.70;;;18.59;46.78;101902.53;4966670;28;96913;-72
2022/05/07 07:51:07;;;;;;;9.83;8.83;;;18.60;93.00;;;18.56;45.91;101910.69;4947446;28;96785;-72
2022/05/07 07:53:34;;;;;;;7.10;6.47;;;18.50;92.70;;;18.59;45.68;101905.19;4959177;28;102265;-72
2022/05/07 07:56:00;;;;;;;21.20;18.80;;;18.60;92.30;;;18.61;45.71;101903.31;4930092;28;97304;-72
2022/05/07 07:58:26;;;;;;;24.80;21.97;;;18.60;92.40;;;18.61;47.42;101908.66;4938282;28;117450;-72
2022/05/07 08:00:52;;;;;;;12.30;11.03;;;18.60;93.50;;;18.64;45.77;101899.66;4941264;28;97247;-73
2022/05/07 08:03:19;;;;;;;25.53;21.67;;;18.60;92.30;;;18.63;47.60;101905.91;4956345;28;96927;-72
2022/05/07 08:05:52;;;;;;;7.03;6.47;;;18.60;93.60;;;18.63;45.94;101909.47;4944848;28;96992;-72
2022/05/07 08:13:49;;;;;;;9.00;8.20;;;18.60;93.70;;;18.60;46.09;101901.59;4964627;28;100582;-72
2022/05/07 08:16:18;;;;;;;7.30;6.70;;;18.60;93.10;;;18.62;45.56;101902.38;4957734;28;96574;-72
2022/05/07 08:18:44;;;;;;;11.77;10.60;;;18.60;92.30;;;18.65;45.73;101907.59;4947583;28;97147;-72
2022/05/07 08:21:11;;;;;;;7.30;6.60;;;18.70;92.10;;;18.69;45.65;101914.53;4944683;28;124432;-73
2022/05/07 08:23:38;;;;;;;7.83;6.80;;;18.80;92.00;;;18.71;45.39;101909.97;4940174;28;97128;-72
2022/05/07 08:26:06;;;;;;;7.07;6.43;;;18.80;91.90;;;18.77;45.40;101913.28;4958981;28;100548;-72
2022/05/07 08:28:32;;;;;;;24.57;21.63;;;18.80;91.80;;;18.80;47.50;101905.94;4943100;28;96930;-72
2022/05/07 08:30:58;;;;;;;25.50;22.73;;;18.90;93.10;;;18.83;46.75;101915.66;4958962;28;98042;-73
2022/05/07 08:33:25;;;;;;;25.60;21.50;;;18.90;93.30;;;18.85;46.82;101911.09;4959130;28;115232;-73
2022/05/07 08:35:51;;;;;;;31.10;24.23;;;18.90;93.20;;;18.84;46.68;101912.91;4953651;28;96614;-72
2022/05/07 08:38:17;;;;;;;31.17;25.33;;;18.90;92.60;;;18.88;47.22;101918.94;4942843;28;97196;-73
2022/05/07 08:40:44;;;;;;;29.70;23.37;;;18.90;93.20;;;18.87;46.01;101912.72;4943101;28;99269;-72
2022/05/07 08:43:10;;;;;;;28.57;24.47;;;18.90;92.50;;;18.90;47.95;101914.38;4941727;28;123993;-74
2022/05/07 08:45:39;;;;;;;10.83;9.73;;;18.90;93.80;;;18.90;45.75;101911.72;4953562;28;97347;-72
2022/05/07 08:48:05;;;;;;;8.63;7.73;;;18.90;92.40;;;18.91;45.41;101908.94;4933208;28;98006;-72
2022/05/07 08:50:30;;;;;;;15.83;14.07;;;19.00;92.00;;;18.95;45.48;101906.97;4956448;28;98833;-72
2022/05/07 08:52:57;;;;;;;11.20;10.10;;;19.00;91.80;;;18.97;46.14;101902.44;4937983;28;97506;-72
2022/05/07 08:55:23;;;;;;;31.83;24.27;;;19.00;92.60;;;19.00;46.99;101903.16;4959871;28;97223;-72
2022/05/07 08:57:51;;;;;;;14.87;13.23;;;19.10;92.90;;;18.97;46.65;101907.78;4959755;28;101287;-72
2022/05/07 09:00:20;;;;;;;28.87;21.73;;;19.10;92.50;;;19.01;46.59;101898.66;4966816;28;97558;-72
2022/05/07 09:02:53;;;;;;;24.10;20.13;;;19.10;92.60;;;19.00;46.24;101903.16;4965316;28;97022;-72
2022/05/07 09:05:32;;;;;;;22.97;18.23;;;19.10;92.40;;;19.01;45.74;101904.00;4967776;28;99102;-72
2022/05/07 09:07:59;;;;;;;18.97;15.63;;;19.10;92.20;;;19.00;46.13;101907.63;4958339;28;96808;-73
2022/05/07 09:10:26;;;;;;;27.77;21.37;;;19.10;92.40;;;18.99;46.38;101905.91;4951352;28;97571;-72
2022/05/07 09:12:53;;;;;;;27.60;21.23;;;19.10;92.20;;;19.04;47.57;101906.53;4945236;28;97727;-72
2022/05/07 09:15:19;;;;;;;24.00;20.63;;;19.10;93.40;;;19.07;46.87;101901.00;4938963;28;99644;-73
2022/05/07 09:17:48;;;;;;;26.00;20.23;;;19.10;92.80;;;19.09;47.43;101907.13;4951675;28;98957;-73
2022/05/07 09:20:18;;;;;;;24.10;19.60;;;19.20;93.30;;;19.09;47.40;101901.78;4950358;28;99054;-73
2022/05/07 09:22:49;;;;;;;26.30;21.30;;;19.20;92.90;;;19.10;47.34;101903.56;4942651;28;98769;-73
2022/05/07 09:25:23;;;;;;;23.80;19.57;;;19.20;93.00;;;19.12;47.21;101896.31;4949692;28;99141;-73
2022/05/07 09:27:55;;;;;;;22.13;17.47;;;19.30;93.20;;;19.03;46.35;101905.66;4945071;28;99022;-72
2022/05/07 09:30:30;;;;;;;24.43;19.03;;;19.20;92.50;;;19.04;46.14;101903.84;4924504;28;97335;-73
2022/05/07 09:32:57;;;;;;;23.73;19.37;;;19.20;92.20;;;19.00;46.64;101902.28;4949094;28;97761;-73
2022/05/07 09:35:47;;;;;;;22.93;18.80;;;19.20;92.50;;;19.11;47.56;101899.94;4941081;28;103372;-73
2022/05/07 09:38:15;;;;;;;20.83;17.47;;;19.20;93.10;;;19.16;46.04;101897.88;4921176;28;98072;-73
2022/05/07 09:40:43;;;;;;;22.17;17.70;;;19.30;92.50;;;19.17;46.27;101894.25;4918645;28;97814;-73
2022/05/07 09:43:11;;;;;;;22.93;18.90;;;19.30;92.30;;;19.15;45.98;101890.78;4918898;28;97079;-74
2022/05/07 09:45:39;;;;;;;24.90;18.93;;;19.30;92.40;;;19.12;46.12;101882.94;4936123;28;97394;-72
2022/05/07 09:48:08;;;;;;;24.20;18.90;;;19.30;92.20;;;19.11;46.07;101883.03;4924696;28;97672;-72
2022/05/07 09:58:51;;;;;;;26.53;17.80;;;19.30;92.20;;;19.04;45.97;101877.09;4934792;28;99458;-73
2022/05/07 10:01:49;;;;;;;25.53;17.43;;;19.30;91.90;;;19.15;45.69;101880.09;4919770;28;99670;-73
2022/05/07 10:04:30;;;;;;;23.17;17.80;;;19.30;92.50;;;19.21;46.99;101879.75;4922009;28;98776;-73
2022/05/07 10:07:21;;;;;;;31.07;18.97;;;19.30;92.60;;;19.18;45.48;101879.94;4917666;28;97701;-73
2022/05/07 10:10:25;;;;;;;23.67;17.73;;;19.40;91.90;;;19.31;45.13;101881.00;4914249;28;97122;-74
2022/05/07 10:12:55;;;;;;;27.77;19.03;;;19.50;91.70;;;19.32;47.10;101877.41;4921970;28;102448;-72
2022/05/07 10:15:23;;;;;;;24.27;17.20;;;19.50;92.60;;;19.22;45.42;101878.81;4914841;28;98744;-73
2022/05/07 10:18:06;;;;;;;28.77;19.40;;;19.40;91.60;;;19.33;46.64;101873.78;4943379;28;97137;-72
2022/05/07 10:20:41;;;;;;;26.60;19.70;;;19.50;92.20;;;19.29;45.90;101877.56;4923700;28;97643;-72
2022/05/07 10:23:12;;;;;;;29.20;19.10;;;19.50;91.90;;;19.32;45.19;101874.72;4932279;28;98233;-73
2022/05/07 10:25:40;;;;;;;29.53;19.00;;;19.50;91.50;;;19.33;45.13;101873.78;4899698;28;103593;-74
2022/05/07 10:28:14;;;;;;;17.67;12.90;;;19.50;91.70;;;19.37;44.50;101873.59;4923539;28;99010;-73
2022/05/07 10:30:56;;;;;;;27.97;18.67;;;19.50;90.90;;;19.39;44.97;101871.75;4935681;28;97092;-73